createdAt,value
2019-03-22T00:00:28.716Z,1025.39
2019-03-22T00:01:28.710Z,1025.40
2019-03-22T00:02:28.713Z,1025.39
2019-03-22T00:03:28.698Z,1025.34
2019-03-22T00:04:28.686Z,1025.34
2019-03-22T00:05:28.681Z,1025.34
2019-03-22T00:06:28.673Z,1025.30
2019-03-22T00:07:28.662Z,1025.31
2019-03-22T00:08:28.675Z,1025.31
2019-03-22T00:09:28.647Z,1025.29
2019-03-22T00:10:28.636Z,1025.30
2019-03-22T00:11:28.626Z,1025.33
2019-03-22T00:12:28.619Z,1025.31
2019-03-22T00:13:28.601Z,1025.29
2019-03-22T00:14:28.602Z,1025.23
2019-03-22T00:15:28.602Z,1025.27
2019-03-22T00:16:28.580Z,1025.25
2019-03-22T00:17:28.577Z,1025.27
2019-03-22T00:18:28.580Z,1025.27
2019-03-22T00:19:28.565Z,1025.24
2019-03-22T00:20:28.544Z,1025.27
2019-03-22T00:21:28.540Z,1025.31
2019-03-22T00:22:28.593Z,1025.31
2019-03-22T00:23:28.519Z,1025.36
2019-03-22T00:24:28.515Z,1025.36
2019-03-22T00:25:28.524Z,1025.35
2019-03-22T00:26:28.502Z,1025.33
2019-03-22T00:27:28.489Z,1025.32
2019-03-22T00:28:28.476Z,1025.32
2019-03-22T00:29:28.469Z,1025.27
2019-03-22T00:30:28.458Z,1025.27
2019-03-22T00:31:28.453Z,1025.28
2019-03-22T00:32:28.446Z,1025.29
2019-03-22T00:33:28.431Z,1025.28
2019-03-22T00:34:28.430Z,1025.29
2019-03-22T00:35:28.426Z,1025.30
2019-03-22T00:36:28.410Z,1025.28
2019-03-22T00:37:28.407Z,1025.30
2019-03-22T00:38:28.397Z,1025.29
2019-03-22T00:39:28.377Z,1025.34
2019-03-22T00:40:28.373Z,1025.31
2019-03-22T00:41:28.375Z,1025.31
2019-03-22T00:42:28.354Z,1025.30
2019-03-22T00:43:28.345Z,1025.26
2019-03-22T00:44:28.348Z,1025.27
2019-03-22T00:45:28.338Z,1025.24
2019-03-22T00:46:28.312Z,1025.25
2019-03-22T00:47:28.323Z,1025.24
2019-03-22T00:48:28.299Z,1025.26
2019-03-22T00:49:28.287Z,1025.23
2019-03-22T00:50:28.284Z,1025.22
2019-03-22T00:51:28.278Z,1025.25
2019-03-22T00:52:28.268Z,1025.25
2019-03-22T00:53:28.263Z,1025.29
2019-03-22T00:54:28.248Z,1025.26
2019-03-22T00:55:28.261Z,1025.26
2019-03-22T00:56:28.236Z,1025.24
2019-03-22T00:57:28.940Z,1025.27
2019-03-22T00:58:28.215Z,1025.23
2019-03-22T00:59:28.217Z,1025.23
2019-03-22T01:00:28.197Z,1025.22
2019-03-22T01:01:28.208Z,1025.23
2019-03-22T01:02:28.178Z,1025.24
2019-03-22T01:03:28.170Z,1025.23
2019-03-22T01:04:28.171Z,1025.23
2019-03-22T01:05:28.171Z,1025.22
2019-03-22T01:06:28.137Z,1025.21
2019-03-22T01:07:28.136Z,1025.19
2019-03-22T01:08:28.127Z,1025.17
2019-03-22T01:09:28.115Z,1025.18
2019-03-22T01:10:28.122Z,1025.18
2019-03-22T01:11:28.107Z,1025.15
2019-03-22T01:12:28.088Z,1025.14
2019-03-22T01:13:28.077Z,1025.08
2019-03-22T01:14:28.076Z,1025.08
2019-03-22T01:15:28.073Z,1025.10
2019-03-22T01:16:28.058Z,1025.06
2019-03-22T01:17:28.044Z,1025.07
2019-03-22T01:18:28.036Z,1025.04
2019-03-22T01:19:28.029Z,1025.07
2019-03-22T01:20:28.015Z,1025.06
2019-03-22T01:21:28.015Z,1025.06
2019-03-22T01:22:28.014Z,1025.05
2019-03-22T01:23:28.021Z,1025.05
2019-03-22T01:24:27.982Z,1025.04
2019-03-22T01:25:27.977Z,1025.08
2019-03-22T01:26:27.975Z,1025.08
2019-03-22T01:27:39.565Z,1025.07
2019-03-22T01:28:27.961Z,1025.05
2019-03-22T01:29:27.934Z,1025.13
2019-03-22T01:30:27.932Z,1025.12
2019-03-22T01:31:27.941Z,1025.13
2019-03-22T01:32:27.913Z,1025.11
2019-03-22T01:33:27.904Z,1025.14
2019-03-22T01:34:27.897Z,1025.15
2019-03-22T01:35:27.883Z,1025.14
2019-03-22T01:36:27.875Z,1025.13
2019-03-22T01:37:27.874Z,1025.11
2019-03-22T01:38:28.845Z,1025.14
2019-03-22T01:39:27.850Z,1025.13
2019-03-22T01:40:27.839Z,1025.10
2019-03-22T01:41:27.839Z,1025.11
2019-03-22T01:42:27.824Z,1025.10
2019-03-22T01:43:27.811Z,1025.08
2019-03-22T01:44:27.809Z,1025.10
2019-03-22T01:45:27.791Z,1025.07
2019-03-22T01:46:27.787Z,1025.09
2019-03-22T01:47:27.776Z,1025.06
2019-03-22T01:48:27.778Z,1025.07
2019-03-22T01:49:27.756Z,1025.03
2019-03-22T01:50:27.761Z,1025.09
2019-03-22T01:51:27.760Z,1025.10
2019-03-22T01:52:27.745Z,1025.08
2019-03-22T01:53:27.729Z,1025.05
2019-03-22T01:54:27.735Z,1025.06
2019-03-22T01:55:27.707Z,1025.06
2019-03-22T01:56:27.688Z,1025.07
2019-03-22T01:57:27.691Z,1024.99
2019-03-22T01:58:27.678Z,1025.03
2019-03-22T01:59:27.671Z,1025.03
2019-03-22T02:00:27.662Z,1025.05
2019-03-22T02:01:27.651Z,1025.02
2019-03-22T02:02:27.644Z,1025.00
2019-03-22T02:03:28.351Z,1025.03
2019-03-22T02:04:27.622Z,1025.00
2019-03-22T02:05:27.621Z,1024.96
2019-03-22T02:06:27.604Z,1024.95
2019-03-22T02:07:27.601Z,1024.96
2019-03-22T02:08:27.597Z,1024.86
2019-03-22T02:09:27.579Z,1024.88
2019-03-22T02:10:27.572Z,1024.88
2019-03-22T02:11:27.560Z,1024.88
2019-03-22T02:12:27.546Z,1024.87
2019-03-22T02:13:27.554Z,1024.85
2019-03-22T02:14:27.533Z,1024.86
2019-03-22T02:15:30.361Z,1024.83
2019-03-22T02:16:28.365Z,1024.83
2019-03-22T02:17:27.503Z,1024.83
2019-03-22T02:18:27.501Z,1024.82
2019-03-22T02:19:27.491Z,1024.82
2019-03-22T02:20:27.483Z,1024.85
2019-03-22T02:21:27.467Z,1024.81
2019-03-22T02:22:27.462Z,1024.79
2019-03-22T02:23:27.458Z,1024.81
2019-03-22T02:24:27.443Z,1024.84
2019-03-22T02:25:27.432Z,1024.83
2019-03-22T02:26:27.433Z,1024.84
2019-03-22T02:27:27.416Z,1024.86
2019-03-22T02:28:27.407Z,1024.87
2019-03-22T02:29:27.395Z,1024.89
2019-03-22T02:30:27.402Z,1024.85
2019-03-22T02:31:27.389Z,1024.85
2019-03-22T02:32:27.401Z,1024.84
2019-03-22T02:33:27.379Z,1024.85
2019-03-22T02:34:27.365Z,1024.85
2019-03-22T02:35:29.358Z,1024.84
2019-03-22T02:36:27.393Z,1024.84
2019-03-22T02:37:27.349Z,1024.84
2019-03-22T02:38:27.409Z,1024.81
2019-03-22T02:39:27.425Z,1024.79
2019-03-22T02:40:27.342Z,1024.79
2019-03-22T02:41:27.322Z,1024.81
2019-03-22T02:42:27.282Z,1024.77
2019-03-22T02:43:27.294Z,1024.74
2019-03-22T02:44:27.270Z,1024.74
2019-03-22T02:45:34.984Z,1024.74
2019-03-22T02:47:20.656Z,1024.73
2019-03-22T02:48:20.627Z,1024.69
2019-03-22T02:50:18.784Z,1024.70
2019-03-22T02:51:14.111Z,1024.70
2019-03-22T02:52:14.097Z,1024.71
2019-03-22T02:53:14.096Z,1024.66
2019-03-22T02:54:14.074Z,1024.69
2019-03-22T02:55:14.066Z,1024.68
2019-03-22T02:56:14.188Z,1024.71
2019-03-22T02:57:14.053Z,1024.72
2019-03-22T02:58:20.624Z,1024.68
2019-03-22T02:59:14.053Z,1024.71
2019-03-22T03:00:14.037Z,1024.69
2019-03-22T03:01:14.563Z,1024.71
2019-03-22T03:02:14.561Z,1024.70
2019-03-22T03:03:13.995Z,1024.73
2019-03-22T03:04:13.989Z,1024.72
2019-03-22T03:05:13.982Z,1024.72
2019-03-22T03:06:13.968Z,1024.71
2019-03-22T03:07:13.964Z,1024.70
2019-03-22T03:08:13.960Z,1024.70
2019-03-22T03:09:13.942Z,1024.70
2019-03-22T03:10:13.938Z,1024.69
2019-03-22T03:11:13.921Z,1024.75
2019-03-22T03:12:13.936Z,1024.71
2019-03-22T03:13:13.911Z,1024.72
2019-03-22T03:14:13.902Z,1024.71
2019-03-22T03:15:13.982Z,1024.66
2019-03-22T03:16:13.884Z,1024.67
2019-03-22T03:17:13.869Z,1024.65
2019-03-22T03:18:13.853Z,1024.66
2019-03-22T03:19:13.847Z,1024.67
2019-03-22T03:20:13.846Z,1024.62
2019-03-22T03:21:13.825Z,1024.60
2019-03-22T03:22:14.570Z,1024.57
2019-03-22T03:23:13.815Z,1024.55
2019-03-22T03:24:13.831Z,1024.50
2019-03-22T03:25:13.805Z,1024.50
2019-03-22T03:26:13.797Z,1024.52
2019-03-22T03:27:13.778Z,1024.48
2019-03-22T03:28:13.768Z,1024.52
2019-03-22T03:29:13.765Z,1024.51
2019-03-22T03:30:13.752Z,1024.50
2019-03-22T03:31:13.745Z,1024.51
2019-03-22T03:32:13.733Z,1024.58
2019-03-22T03:33:13.720Z,1024.50
2019-03-22T03:34:13.715Z,1024.53
2019-03-22T03:35:13.708Z,1024.51
2019-03-22T03:36:13.697Z,1024.46
2019-03-22T03:37:13.685Z,1024.46
2019-03-22T03:38:13.699Z,1024.45
2019-03-22T03:39:13.660Z,1024.42
2019-03-22T03:40:14.592Z,1024.37
2019-03-22T03:41:13.644Z,1024.39
2019-03-22T03:42:13.635Z,1024.30
2019-03-22T03:43:13.635Z,1024.35
2019-03-22T03:44:13.617Z,1024.32
2019-03-22T03:45:13.607Z,1024.28
2019-03-22T03:46:13.632Z,1024.32
2019-03-22T03:47:13.590Z,1024.31
2019-03-22T03:48:13.581Z,1024.36
2019-03-22T03:49:13.580Z,1024.37
2019-03-22T03:50:13.560Z,1024.36
2019-03-22T03:51:13.555Z,1024.39
2019-03-22T03:52:13.543Z,1024.38
2019-03-22T03:53:13.534Z,1024.41
2019-03-22T03:54:13.524Z,1024.39
2019-03-22T03:55:13.542Z,1024.43
2019-03-22T03:56:13.509Z,1024.41
2019-03-22T03:57:13.495Z,1024.45
2019-03-22T03:58:13.503Z,1024.39
2019-03-22T03:59:13.556Z,1024.42
2019-03-22T04:00:13.471Z,1024.38
2019-03-22T04:01:13.459Z,1024.37
2019-03-22T04:02:13.463Z,1024.35
2019-03-22T04:03:13.451Z,1024.30
2019-03-22T04:04:13.485Z,1024.33
2019-03-22T04:05:14.641Z,1024.35
2019-03-22T04:06:13.423Z,1024.33
2019-03-22T04:07:13.403Z,1024.32
2019-03-22T04:08:13.400Z,1024.31
2019-03-22T04:09:13.391Z,1024.28
2019-03-22T04:10:13.393Z,1024.30
2019-03-22T04:11:13.366Z,1024.24
2019-03-22T04:12:13.357Z,1024.21
2019-03-22T04:13:13.349Z,1024.26
2019-03-22T04:14:13.336Z,1024.25
2019-03-22T04:15:13.338Z,1024.26
2019-03-22T04:16:13.331Z,1024.27
2019-03-22T04:17:13.308Z,1024.26
2019-03-22T04:18:13.304Z,1024.27
2019-03-22T04:19:13.297Z,1024.29
2019-03-22T04:20:13.286Z,1024.27
2019-03-22T04:21:13.275Z,1024.31
2019-03-22T04:22:13.264Z,1024.28
2019-03-22T04:23:13.259Z,1024.27
2019-03-22T04:24:13.254Z,1024.28
2019-03-22T04:25:13.239Z,1024.26
2019-03-22T04:26:14.083Z,1024.29
2019-03-22T04:27:13.218Z,1024.25
2019-03-22T04:28:13.223Z,1024.27
2019-03-22T04:29:13.207Z,1024.30
2019-03-22T04:30:13.194Z,1024.27
2019-03-22T04:31:13.195Z,1024.27
2019-03-22T04:32:13.185Z,1024.28
2019-03-22T04:33:13.184Z,1024.25
2019-03-22T04:34:13.161Z,1024.24
2019-03-22T04:35:13.154Z,1024.25
2019-03-22T04:36:13.149Z,1024.24
2019-03-22T04:37:13.128Z,1024.23
2019-03-22T04:38:13.124Z,1024.19
2019-03-22T04:39:13.133Z,1024.18
2019-03-22T04:40:13.095Z,1024.15
2019-03-22T04:41:13.084Z,1024.17
2019-03-22T04:42:13.595Z,1024.18
2019-03-22T04:43:13.070Z,1024.20
2019-03-22T04:44:13.060Z,1024.22
2019-03-22T04:45:13.050Z,1024.21
2019-03-22T04:46:13.043Z,1024.19
2019-03-22T04:47:13.029Z,1024.21
2019-03-22T04:48:13.027Z,1024.24
2019-03-22T04:49:13.013Z,1024.19
2019-03-22T04:50:13.006Z,1024.18
2019-03-22T04:51:12.990Z,1024.19
2019-03-22T04:52:12.999Z,1024.20
2019-03-22T04:53:12.984Z,1024.20
2019-03-22T04:54:12.973Z,1024.16
2019-03-22T04:55:12.960Z,1024.14
2019-03-22T04:56:12.950Z,1024.15
2019-03-22T04:57:12.945Z,1024.14
2019-03-22T04:58:12.933Z,1024.15
2019-03-22T04:59:18.887Z,1024.11
2019-03-22T05:00:12.938Z,1024.14
2019-03-22T05:01:12.894Z,1024.10
2019-03-22T05:02:12.890Z,1024.14
2019-03-22T05:03:12.899Z,1024.14
2019-03-22T05:04:12.875Z,1024.14
2019-03-22T05:05:12.861Z,1024.14
2019-03-22T05:06:12.846Z,1024.19
2019-03-22T05:07:12.841Z,1024.19
2019-03-22T05:08:13.594Z,1024.19
2019-03-22T05:09:12.825Z,1024.23
2019-03-22T05:10:12.813Z,1024.21
2019-03-22T05:11:12.801Z,1024.24
2019-03-22T05:12:14.242Z,1024.22
2019-03-22T05:13:12.785Z,1024.21
2019-03-22T05:14:12.777Z,1024.20
2019-03-22T05:15:12.770Z,1024.22
2019-03-22T05:16:12.766Z,1024.18
2019-03-22T05:17:12.756Z,1024.18
2019-03-22T05:18:12.739Z,1024.19
2019-03-22T05:19:12.731Z,1024.16
2019-03-22T05:20:12.723Z,1024.19
2019-03-22T05:21:12.715Z,1024.20
2019-03-22T05:22:12.709Z,1024.21
2019-03-22T05:23:12.694Z,1024.24
2019-03-22T05:24:12.685Z,1024.25
2019-03-22T05:25:12.669Z,1024.25
2019-03-22T05:26:12.656Z,1024.27
2019-03-22T05:27:12.657Z,1024.31
2019-03-22T05:28:12.642Z,1024.31
2019-03-22T05:29:12.637Z,1024.36
2019-03-22T05:30:12.620Z,1024.34
2019-03-22T05:31:12.621Z,1024.38
2019-03-22T05:32:12.614Z,1024.36
2019-03-22T05:33:12.599Z,1024.34
2019-03-22T05:34:12.590Z,1024.37
2019-03-22T05:35:12.576Z,1024.41
2019-03-22T05:36:12.575Z,1024.40
2019-03-22T05:37:12.557Z,1024.41
2019-03-22T05:38:12.555Z,1024.40
2019-03-22T05:39:12.544Z,1024.41
2019-03-22T05:40:12.528Z,1024.40
2019-03-22T05:41:13.748Z,1024.41
2019-03-22T05:42:12.512Z,1024.43
2019-03-22T05:43:12.498Z,1024.49
2019-03-22T05:44:12.499Z,1024.50
2019-03-22T05:45:12.487Z,1024.46
2019-03-22T05:46:12.471Z,1024.51
2019-03-22T05:47:12.463Z,1024.52
2019-03-22T05:48:12.450Z,1024.57
2019-03-22T05:49:12.441Z,1024.55
2019-03-22T05:50:12.430Z,1024.52
2019-03-22T05:51:12.426Z,1024.55
2019-03-22T05:52:12.413Z,1024.52
2019-03-22T05:53:12.405Z,1024.50
2019-03-22T05:54:12.402Z,1024.52
2019-03-22T05:55:12.387Z,1024.50
2019-03-22T05:56:12.376Z,1024.52
2019-03-22T05:57:13.752Z,1024.52
2019-03-22T05:58:12.359Z,1024.52
2019-03-22T05:59:12.342Z,1024.49
2019-03-22T06:00:12.336Z,1024.53
2019-03-22T06:01:12.323Z,1024.53
2019-03-22T06:02:12.322Z,1024.54
2019-03-22T06:03:12.321Z,1024.61
2019-03-22T06:04:12.306Z,1024.62
2019-03-22T06:05:12.289Z,1024.61
2019-03-22T06:06:12.281Z,1024.65
2019-03-22T06:07:12.297Z,1024.69
2019-03-22T06:08:12.258Z,1024.71
2019-03-22T06:09:12.247Z,1024.75
2019-03-22T06:10:12.251Z,1024.74
2019-03-22T06:11:12.240Z,1024.73
2019-03-22T06:12:12.224Z,1024.78
2019-03-22T06:13:12.225Z,1024.77
2019-03-22T06:14:12.203Z,1024.76
2019-03-22T06:15:12.204Z,1024.78
2019-03-22T06:16:12.196Z,1024.81
2019-03-22T06:17:12.180Z,1024.79
2019-03-22T06:18:12.176Z,1024.80
2019-03-22T06:19:12.158Z,1024.80
2019-03-22T06:20:12.159Z,1024.83
2019-03-22T06:21:12.172Z,1024.83
2019-03-22T06:22:12.132Z,1024.81
2019-03-22T06:23:12.120Z,1024.80
2019-03-22T06:24:12.108Z,1024.81
2019-03-22T06:25:12.104Z,1024.79
2019-03-22T06:26:12.099Z,1024.79
2019-03-22T06:27:12.085Z,1024.82
2019-03-22T06:28:12.307Z,1024.82
2019-03-22T06:29:12.133Z,1024.82
2019-03-22T06:30:13.720Z,1024.84
2019-03-22T06:31:12.536Z,1024.85
2019-03-22T06:32:12.127Z,1024.85
2019-03-22T06:33:13.195Z,1024.86
2019-03-22T06:34:12.191Z,1024.92
2019-03-22T06:35:13.062Z,1024.92
2019-03-22T06:36:12.355Z,1024.94
2019-03-22T06:37:19.416Z,1024.97
2019-03-22T06:38:13.553Z,1024.98
2019-03-22T06:39:12.065Z,1024.99
2019-03-22T06:40:15.502Z,1025.03
2019-03-22T06:41:12.083Z,1025.05
2019-03-22T06:42:50.723Z,1025.09
2019-03-22T06:43:12.713Z,1025.12
2019-03-22T06:44:19.694Z,1025.14
2019-03-22T06:46:05.383Z,1025.13
2019-03-22T06:47:05.345Z,1025.10
2019-03-22T06:49:06.658Z,1025.14
2019-03-22T06:50:06.532Z,1025.14
2019-03-22T06:51:59.986Z,1025.19
2019-03-22T06:52:52.272Z,1025.17
2019-03-22T06:53:52.229Z,1025.16
2019-03-22T06:54:52.233Z,1025.17
2019-03-22T06:55:52.215Z,1025.19
2019-03-22T06:56:52.202Z,1025.20
2019-03-22T06:57:52.170Z,1025.19
2019-03-22T06:58:52.165Z,1025.18
2019-03-22T06:59:52.165Z,1025.19
2019-03-22T07:00:52.143Z,1025.23
2019-03-22T07:01:52.143Z,1025.22
2019-03-22T07:02:52.150Z,1025.19
2019-03-22T07:03:52.125Z,1025.21
2019-03-22T07:04:52.130Z,1025.22
2019-03-22T07:05:52.107Z,1025.21
2019-03-22T07:06:52.113Z,1025.22
2019-03-22T07:07:52.090Z,1025.22
2019-03-22T07:08:52.088Z,1025.25
2019-03-22T07:09:52.127Z,1025.22
2019-03-22T07:10:52.805Z,1025.27
2019-03-22T07:11:52.065Z,1025.26
2019-03-22T07:12:52.167Z,1025.27
2019-03-22T07:13:52.041Z,1025.23
2019-03-22T07:14:52.034Z,1025.26
2019-03-22T07:15:52.021Z,1025.26
2019-03-22T07:16:52.022Z,1025.22
2019-03-22T07:17:59.751Z,1025.25
2019-03-22T07:19:48.886Z,1025.24
2019-03-22T07:20:47.707Z,1025.23
2019-03-22T07:21:47.726Z,1025.21
2019-03-22T07:22:47.728Z,1025.17
2019-03-22T07:23:47.677Z,1025.19
2019-03-22T07:24:47.659Z,1025.16
2019-03-22T07:25:47.653Z,1025.15
2019-03-22T07:26:47.647Z,1025.12
2019-03-22T07:27:47.652Z,1025.13
2019-03-22T07:28:47.630Z,1025.11
2019-03-22T07:29:47.622Z,1025.06
2019-03-22T07:30:47.619Z,1025.02
2019-03-22T07:31:47.627Z,1025.01
2019-03-22T07:32:47.599Z,1025.06
2019-03-22T07:33:47.601Z,1025.04
2019-03-22T07:34:47.587Z,1025.03
2019-03-22T07:35:47.704Z,1024.99
2019-03-22T07:36:47.572Z,1025.01
2019-03-22T07:37:47.560Z,1024.95
2019-03-22T07:38:47.553Z,1024.97
2019-03-22T07:39:47.540Z,1024.98
2019-03-22T07:40:47.529Z,1024.94
2019-03-22T07:41:47.547Z,1025.00
2019-03-22T07:42:50.448Z,1024.97
2019-03-22T07:43:55.215Z,1024.97
2019-03-22T07:46:13.596Z,1024.94
2019-03-22T07:46:41.489Z,1024.92
2019-03-22T07:48:50.022Z,1024.93
2019-03-22T07:49:34.891Z,1024.92
2019-03-22T07:51:28.458Z,1024.89
2019-03-22T07:52:50.468Z,1024.88
2019-03-22T07:53:28.591Z,1024.86
2019-03-22T07:54:28.333Z,1024.88
2019-03-22T07:55:28.334Z,1024.83
2019-03-22T07:56:28.321Z,1024.85
2019-03-22T07:57:28.385Z,1024.86
2019-03-22T07:58:28.314Z,1024.85
2019-03-22T07:59:28.298Z,1024.83
2019-03-22T08:00:30.989Z,1024.84
2019-03-22T08:01:28.303Z,1024.85
2019-03-22T08:02:28.280Z,1024.85
2019-03-22T08:03:28.273Z,1024.84
2019-03-22T08:04:28.258Z,1024.82
2019-03-22T08:05:28.246Z,1024.81
2019-03-22T08:06:28.241Z,1024.86
2019-03-22T08:07:28.245Z,1024.83
2019-03-22T08:08:28.227Z,1024.83
2019-03-22T08:09:28.222Z,1024.83
2019-03-22T08:10:28.210Z,1024.88
2019-03-22T08:11:28.238Z,1024.85
2019-03-22T08:12:28.200Z,1024.86
2019-03-22T08:13:28.191Z,1024.80
2019-03-22T08:14:28.185Z,1024.85
2019-03-22T08:15:28.269Z,1024.82
2019-03-22T08:16:28.173Z,1024.81
2019-03-22T08:17:28.216Z,1024.86
2019-03-22T08:18:28.158Z,1024.82
2019-03-22T08:19:28.158Z,1024.80
2019-03-22T08:20:28.161Z,1024.76
2019-03-22T08:21:28.138Z,1024.76
2019-03-22T08:22:28.123Z,1024.71
2019-03-22T08:23:28.139Z,1024.71
2019-03-22T08:24:28.147Z,1024.66
2019-03-22T08:25:28.108Z,1024.64
2019-03-22T08:26:28.099Z,1024.61
2019-03-22T08:27:28.113Z,1024.59
2019-03-22T08:28:28.126Z,1024.60
2019-03-22T08:29:28.116Z,1024.57
2019-03-22T08:30:28.082Z,1024.57
2019-03-22T08:31:28.090Z,1024.59
2019-03-22T08:32:28.075Z,1024.55
2019-03-22T08:33:28.061Z,1024.50
2019-03-22T08:34:28.050Z,1024.46
2019-03-22T08:35:28.039Z,1024.43
2019-03-22T08:36:28.038Z,1024.44
2019-03-22T08:37:28.028Z,1024.48
2019-03-22T08:38:28.017Z,1024.45
2019-03-22T08:39:28.016Z,1024.46
2019-03-22T08:40:28.011Z,1024.48
2019-03-22T08:41:28.006Z,1024.42
2019-03-22T08:42:27.988Z,1024.47
2019-03-22T08:43:28.010Z,1024.44
2019-03-22T08:44:27.984Z,1024.43
2019-03-22T08:45:28.015Z,1024.35
2019-03-22T08:46:27.976Z,1024.39
2019-03-22T08:47:33.619Z,1024.36
2019-03-22T08:48:27.961Z,1024.38
2019-03-22T08:49:28.043Z,1024.40
2019-03-22T08:50:28.873Z,1024.31
2019-03-22T08:51:29.893Z,1024.31
2019-03-22T08:52:27.941Z,1024.34
2019-03-22T08:53:27.931Z,1024.34
2019-03-22T08:54:27.938Z,1024.31
2019-03-22T08:55:27.921Z,1024.35
2019-03-22T08:56:27.950Z,1024.39
2019-03-22T08:57:27.911Z,1024.36
2019-03-22T08:58:27.913Z,1024.38
2019-03-22T08:59:27.925Z,1024.39
2019-03-22T09:00:38.739Z,1024.39
2019-03-22T09:01:27.924Z,1024.44
2019-03-22T09:02:27.896Z,1024.36
2019-03-22T09:03:27.895Z,1024.36
2019-03-22T09:04:27.898Z,1024.35
2019-03-22T09:05:27.906Z,1024.38
2019-03-22T09:06:27.895Z,1024.34
2019-03-22T09:07:27.943Z,1024.39
2019-03-22T09:08:27.891Z,1024.36
2019-03-22T09:09:40.717Z,1024.34
2019-03-22T09:10:27.895Z,1024.39
2019-03-22T09:11:27.942Z,1024.38
2019-03-22T09:12:27.885Z,1024.40
2019-03-22T09:13:27.887Z,1024.34
2019-03-22T09:14:27.885Z,1024.32
2019-03-22T09:15:40.231Z,1024.33
2019-03-22T09:16:30.632Z,1024.34
2019-03-22T09:17:27.899Z,1024.34
2019-03-22T09:18:27.885Z,1024.37
2019-03-22T09:19:27.881Z,1024.32
2019-03-22T09:20:27.884Z,1024.35
2019-03-22T09:21:27.883Z,1024.32
2019-03-22T09:22:27.883Z,1024.37
2019-03-22T09:23:27.928Z,1024.34
2019-03-22T09:24:38.647Z,1024.34
2019-03-22T09:25:27.895Z,1024.34
2019-03-22T09:26:27.947Z,1024.33
2019-03-22T09:27:27.904Z,1024.34
2019-03-22T09:28:27.892Z,1024.33
2019-03-22T09:29:27.896Z,1024.33
2019-03-22T09:30:27.936Z,1024.32
2019-03-22T09:31:27.911Z,1024.31
2019-03-22T09:32:27.905Z,1024.28
2019-03-22T09:33:27.937Z,1024.32
2019-03-22T09:34:33.755Z,1024.24
2019-03-22T09:35:27.922Z,1024.26
2019-03-22T09:36:27.959Z,1024.25
2019-03-22T09:37:27.919Z,1024.25
2019-03-22T09:38:28.715Z,1024.24
2019-03-22T09:39:27.948Z,1024.21
2019-03-22T09:40:27.918Z,1024.24
2019-03-22T09:41:27.921Z,1024.24
2019-03-22T09:42:27.932Z,1024.23
2019-03-22T09:43:27.939Z,1024.24
2019-03-22T09:44:28.387Z,1024.28
2019-03-22T09:45:27.942Z,1024.24
2019-03-22T09:46:27.947Z,1024.25
2019-03-22T09:47:27.993Z,1024.27
2019-03-22T09:48:27.953Z,1024.29
2019-03-22T09:49:27.969Z,1024.27
2019-03-22T09:50:27.993Z,1024.25
2019-03-22T09:51:27.981Z,1024.24
2019-03-22T09:52:27.971Z,1024.24
2019-03-22T09:53:30.374Z,1024.20
2019-03-22T09:54:27.966Z,1024.22
2019-03-22T09:55:27.972Z,1024.19
2019-03-22T09:56:27.973Z,1024.22
2019-03-22T09:57:27.982Z,1024.21
2019-03-22T09:58:27.981Z,1024.20
2019-03-22T09:59:27.998Z,1024.14
2019-03-22T10:00:27.995Z,1024.18
2019-03-22T10:01:28.010Z,1024.19
2019-03-22T10:02:28.000Z,1024.19
2019-03-22T10:03:28.013Z,1024.22
2019-03-22T10:04:28.060Z,1024.22
2019-03-22T10:05:28.018Z,1024.26
2019-03-22T10:06:28.077Z,1024.26
2019-03-22T10:07:28.024Z,1024.25
2019-03-22T10:08:28.068Z,1024.20
2019-03-22T10:09:28.036Z,1024.20
2019-03-22T10:10:28.149Z,1024.14
2019-03-22T10:11:28.052Z,1024.17
2019-03-22T10:12:28.046Z,1024.15
2019-03-22T10:13:28.049Z,1024.10
2019-03-22T10:14:28.085Z,1024.07
2019-03-22T10:15:28.052Z,1024.06
2019-03-22T10:16:28.095Z,1024.07
2019-03-22T10:17:28.092Z,1024.04
2019-03-22T10:18:28.082Z,1024.06
2019-03-22T10:19:28.078Z,1024.04
2019-03-22T10:20:28.121Z,1024.02
2019-03-22T10:21:28.083Z,1024.01
2019-03-22T10:22:28.191Z,1024.05
2019-03-22T10:23:28.087Z,1024.00
2019-03-22T10:24:28.086Z,1023.98
2019-03-22T10:25:28.152Z,1024.00
2019-03-22T10:26:28.099Z,1023.98
2019-03-22T10:27:28.120Z,1023.96
2019-03-22T10:28:28.132Z,1023.96
2019-03-22T10:29:28.112Z,1023.92
2019-03-22T10:30:29.005Z,1023.93
2019-03-22T10:31:37.225Z,1023.95
2019-03-22T10:32:28.123Z,1023.92
2019-03-22T10:33:28.154Z,1023.90
2019-03-22T10:34:28.135Z,1023.92
2019-03-22T10:35:28.231Z,1023.92
2019-03-22T10:36:28.148Z,1023.95
2019-03-22T10:37:28.188Z,1023.94
2019-03-22T10:38:31.710Z,1023.91
2019-03-22T10:39:28.213Z,1023.88
2019-03-22T10:40:28.159Z,1023.91
2019-03-22T10:41:28.166Z,1023.88
2019-03-22T10:42:28.168Z,1023.92
2019-03-22T10:43:28.206Z,1023.90
2019-03-22T10:44:28.210Z,1023.88
2019-03-22T10:45:28.208Z,1023.87
2019-03-22T10:46:28.184Z,1023.84
2019-03-22T10:47:28.276Z,1023.85
2019-03-22T10:48:28.205Z,1023.81
2019-03-22T10:49:28.207Z,1023.84
2019-03-22T10:50:28.249Z,1023.76
2019-03-22T10:51:28.211Z,1023.76
2019-03-22T10:52:28.218Z,1023.78
2019-03-22T10:53:28.230Z,1023.70
2019-03-22T10:54:28.254Z,1023.73
2019-03-22T10:55:30.233Z,1023.69
2019-03-22T10:56:28.243Z,1023.68
2019-03-22T10:57:28.249Z,1023.60
2019-03-22T10:58:28.246Z,1023.64
2019-03-22T10:59:28.254Z,1023.60
2019-03-22T11:00:28.258Z,1023.53
2019-03-22T11:01:28.256Z,1023.55
2019-03-22T11:02:28.267Z,1023.54
2019-03-22T11:03:28.298Z,1023.51
2019-03-22T11:04:28.282Z,1023.50
2019-03-22T11:05:28.280Z,1023.47
2019-03-22T11:06:28.297Z,1023.44
2019-03-22T11:07:30.032Z,1023.42
2019-03-22T11:08:28.305Z,1023.47
2019-03-22T11:09:28.305Z,1023.42
2019-03-22T11:10:28.318Z,1023.45
2019-03-22T11:11:28.324Z,1023.43
2019-03-22T11:12:28.319Z,1023.42
2019-03-22T11:13:28.322Z,1023.40
2019-03-22T11:14:28.329Z,1023.41
2019-03-22T11:15:28.339Z,1023.41
2019-03-22T11:16:28.338Z,1023.41
2019-03-22T11:17:28.348Z,1023.40
2019-03-22T11:18:37.004Z,1023.40
2019-03-22T11:19:28.356Z,1023.34
2019-03-22T11:20:28.361Z,1023.42
2019-03-22T11:21:28.367Z,1023.37
2019-03-22T11:22:28.376Z,1023.33
2019-03-22T11:23:28.381Z,1023.30
2019-03-22T11:24:28.382Z,1023.33
2019-03-22T11:25:28.394Z,1023.28
2019-03-22T11:26:28.389Z,1023.26
2019-03-22T11:27:28.396Z,1023.21
2019-03-22T11:28:28.412Z,1023.24
2019-03-22T11:29:28.418Z,1023.21
2019-03-22T11:30:28.420Z,1023.19
2019-03-22T11:31:32.339Z,1023.16
2019-03-22T11:32:28.431Z,1023.15
2019-03-22T11:33:28.438Z,1023.10
2019-03-22T11:34:28.435Z,1023.12
2019-03-22T11:35:28.449Z,1023.11
2019-03-22T11:36:28.447Z,1023.10
2019-03-22T11:37:28.455Z,1023.07
2019-03-22T11:38:28.460Z,1023.05
2019-03-22T11:39:28.461Z,1023.03
2019-03-22T11:40:28.471Z,1022.99
2019-03-22T11:41:28.478Z,1022.97
2019-03-22T11:42:28.517Z,1022.93
2019-03-22T11:43:28.491Z,1022.95
2019-03-22T11:44:28.494Z,1022.92
2019-03-22T11:45:28.501Z,1022.93
2019-03-22T11:46:28.506Z,1022.88
2019-03-22T11:47:28.513Z,1022.89
2019-03-22T11:48:28.513Z,1022.88
2019-03-22T11:49:28.517Z,1022.83
2019-03-22T11:50:29.078Z,1022.90
2019-03-22T11:51:28.526Z,1022.84
2019-03-22T11:52:28.537Z,1022.84
2019-03-22T11:53:28.552Z,1022.80
2019-03-22T11:54:28.547Z,1022.82
2019-03-22T11:55:28.552Z,1022.78
2019-03-22T11:56:28.555Z,1022.77
2019-03-22T11:57:28.566Z,1022.73
2019-03-22T11:58:28.569Z,1022.74
2019-03-22T11:59:28.573Z,1022.76
2019-03-22T12:00:28.588Z,1022.74
2019-03-22T12:01:28.586Z,1022.73
2019-03-22T12:02:28.593Z,1022.72
2019-03-22T12:03:28.597Z,1022.73
2019-03-22T12:04:28.602Z,1022.68
2019-03-22T12:05:28.633Z,1022.69
2019-03-22T12:06:28.615Z,1022.67
2019-03-22T12:07:29.510Z,1022.64
2019-03-22T12:08:28.621Z,1022.64
2019-03-22T12:09:28.643Z,1022.60
2019-03-22T12:10:28.637Z,1022.58
2019-03-22T12:11:28.643Z,1022.55
2019-03-22T12:12:28.651Z,1022.59
2019-03-22T12:13:28.656Z,1022.52